createdAt,value
2018-03-19T00:04:33.875Z,100384
2018-03-19T00:09:38.327Z,100387
2018-03-19T00:14:42.946Z,100388
2018-03-19T00:19:47.404Z,100381
2018-03-19T00:24:51.642Z,100375
2018-03-19T00:29:56.059Z,100374
2018-03-19T00:35:00.510Z,100385
2018-03-19T00:40:03.609Z,100378
2018-03-19T00:56:07.685Z,100375
2018-03-19T01:01:12.145Z,100369
2018-03-19T01:06:16.004Z,100361
2018-03-19T01:11:19.870Z,100363
2018-03-19T01:16:22.989Z,100367
2018-03-19T01:21:27.436Z,100356
2018-03-19T01:26:31.888Z,100358
2018-03-19T01:31:36.121Z,100363
2018-03-19T01:36:40.336Z,100358
2018-03-19T01:41:44.570Z,100365
2018-03-19T01:46:48.423Z,100359
2018-03-19T01:51:53.022Z,100362
2018-03-19T01:56:56.113Z,100357
2018-03-19T02:01:59.888Z,100358
2018-03-19T02:07:03.747Z,100352
2018-03-19T02:12:06.820Z,100356
2018-03-19T02:17:09.905Z,100352
2018-03-19T02:22:13.762Z,100361
2018-03-19T02:27:17.620Z,100366
2018-03-19T02:32:21.104Z,100357
2018-03-19T02:37:24.196Z,100353
2018-03-19T02:42:27.301Z,100356
2018-03-19T02:47:30.384Z,100358
2018-03-19T02:52:34.817Z,100361
2018-03-19T02:57:37.915Z,100357
2018-03-19T03:02:42.512Z,100354
2018-03-19T03:07:46.008Z,100355
2018-03-19T03:12:50.444Z,100368
2018-03-19T03:17:54.674Z,100364
2018-03-19T03:22:59.107Z,100376
2018-03-19T03:28:03.293Z,100362
2018-03-19T03:33:06.375Z,100366
2018-03-19T03:38:09.866Z,100375
2018-03-19T03:43:13.728Z,100380
2018-03-19T03:48:17.575Z,100373
2018-03-19T03:53:21.055Z,100373
2018-03-19T03:58:25.302Z,100380
2018-03-19T04:03:28.391Z,100385
2018-03-19T04:08:31.479Z,100391
2018-03-19T04:13:34.976Z,100385
2018-03-19T04:18:38.064Z,100392
2018-03-19T04:23:41.903Z,100386
2018-03-19T04:28:45.004Z,100388
2018-03-19T04:33:48.083Z,100394
2018-03-19T04:38:51.944Z,100395
2018-03-19T04:43:55.034Z,100402
2018-03-19T04:48:58.880Z,100400
2018-03-19T04:54:01.976Z,100389
2018-03-19T04:59:05.065Z,100387
2018-03-19T05:04:08.167Z,100392
2018-03-19T05:09:12.021Z,100393
2018-03-19T05:14:15.096Z,100396
2018-03-19T05:19:19.697Z,100401
2018-03-19T05:24:24.300Z,100415
2018-03-19T05:29:27.381Z,100421
2018-03-19T05:34:30.481Z,100413
2018-03-19T05:39:33.578Z,100416
2018-03-19T05:44:38.021Z,100416
2018-03-19T05:49:41.109Z,100413
2018-03-19T05:54:45.556Z,100422
2018-03-19T05:59:49.781Z,100420
2018-03-19T06:04:54.013Z,100436
2018-03-19T06:09:58.452Z,100428
2018-03-19T06:15:02.307Z,100426
2018-03-19T06:20:06.536Z,100436
2018-03-19T06:25:10.029Z,100440
2018-03-19T06:30:14.255Z,100455
2018-03-19T06:35:18.484Z,100459
2018-03-19T06:40:22.707Z,100455
2018-03-19T06:45:25.751Z,100462
2018-03-19T06:50:30.181Z,100473
2018-03-19T06:55:34.064Z,100474
2018-03-19T07:00:37.921Z,100473
2018-03-19T07:05:41.790Z,100472
2018-03-19T07:10:45.657Z,100485
2018-03-19T07:15:50.092Z,100479
2018-03-19T07:20:54.524Z,100480
2018-03-19T07:25:58.016Z,100489
2018-03-19T07:31:01.888Z,100489
2018-03-19T07:36:05.752Z,100492
2018-03-19T07:41:09.236Z,100499
2018-03-19T07:46:13.671Z,100500
2018-03-19T07:51:17.168Z,100499
2018-03-19T07:56:20.253Z,100502
2018-03-19T08:01:23.339Z,100500
2018-03-19T08:06:27.576Z,100504
2018-03-19T08:11:30.680Z,100492
2018-03-19T08:16:34.171Z,100499
2018-03-19T08:21:38.405Z,100498
2018-03-19T08:26:42.267Z,100501
2018-03-19T08:31:46.124Z,100496
2018-03-19T08:36:50.387Z,100497
2018-03-19T08:41:54.835Z,100490
2018-03-19T08:46:59.455Z,100495
2018-03-19T08:52:03.321Z,100508
2018-03-19T08:57:07.928Z,100498
2018-03-19T09:02:11.419Z,100497
2018-03-19T09:07:14.947Z,100504
2018-03-19T09:12:18.400Z,100507
2018-03-19T09:17:23.012Z,100510
2018-03-19T09:22:26.886Z,100513
2018-03-19T09:27:29.991Z,100513
2018-03-19T09:32:33.488Z,100512
2018-03-19T09:37:36.987Z,100516
2018-03-19T09:42:40.489Z,100518
2018-03-19T09:47:44.712Z,100516
2018-03-19T09:52:47.816Z,100520
2018-03-19T09:57:51.676Z,100526
2018-03-19T10:02:56.107Z,100524
2018-03-19T10:07:59.952Z,100528
2018-03-19T10:13:04.396Z,100548
2018-03-19T10:18:07.888Z,100536
2018-03-19T10:23:12.336Z,100544
2018-03-19T10:28:15.833Z,100541
2018-03-19T10:33:20.274Z,100541
2018-03-19T10:38:24.494Z,100544
2018-03-19T10:43:29.043Z,100550
2018-03-19T10:48:33.466Z,100552
2018-03-19T10:53:37.931Z,100556
2018-03-19T10:58:41.400Z,100554
2018-03-19T11:03:45.838Z,100546
2018-03-19T11:08:50.040Z,100531
2018-03-19T11:13:53.137Z,100518
2018-03-19T11:18:57.568Z,100512
2018-03-19T11:24:02.473Z,100517
2018-03-19T11:29:06.898Z,100504
2018-03-19T11:34:11.499Z,100503
2018-03-19T11:39:15.720Z,100505
2018-03-19T11:44:19.943Z,100500
2018-03-19T11:49:24.379Z,100504
2018-03-19T11:54:28.815Z,100496
2018-03-19T11:59:33.044Z,100502
2018-03-19T12:04:36.136Z,100496
2018-03-19T12:09:39.219Z,100492
2018-03-19T12:14:43.082Z,100495
2018-03-19T12:19:46.169Z,100480
2018-03-19T12:24:50.661Z,100481
2018-03-19T12:29:53.745Z,100469
2018-03-19T12:34:56.825Z,100461
2018-03-19T12:40:00.312Z,100455
2018-03-19T12:45:04.750Z,100450
2018-03-19T12:50:08.220Z,100455
2018-03-19T12:55:11.320Z,100438
2018-03-19T13:00:15.158Z,100438
2018-03-19T13:05:19.392Z,100446
2018-03-19T13:10:23.272Z,100433
2018-03-19T13:15:27.144Z,100434
2018-03-19T13:20:30.464Z,100437
2018-03-19T13:25:34.896Z,100442
2018-03-19T13:30:38.384Z,100442
2018-03-19T13:35:41.463Z,100447
2018-03-19T13:40:45.308Z,100449
2018-03-19T13:45:49.731Z,100444
2018-03-19T13:50:52.842Z,100443
2018-03-19T13:55:57.296Z,100438
2018-03-19T14:01:00.387Z,100437
2018-03-19T14:06:04.812Z,100437
2018-03-19T14:11:08.304Z,100427
2018-03-19T14:16:12.154Z,100428
2018-03-19T14:21:16.760Z,100425
2018-03-19T14:26:21.221Z,100427
2018-03-19T14:31:25.791Z,100416
2018-03-19T14:36:30.261Z,100410
2018-03-19T14:41:34.842Z,100409
2018-03-19T14:46:39.063Z,100406
2018-03-19T14:51:42.190Z,100403
2018-03-19T14:56:45.647Z,100387
2018-03-19T15:01:48.746Z,100382
2018-03-19T15:06:51.827Z,100393
2018-03-19T15:11:55.700Z,100385
2018-03-19T15:16:58.785Z,100388
2018-03-19T15:22:03.228Z,100382
2018-03-19T15:27:06.711Z,100369
2018-03-19T15:32:10.176Z,100370
2018-03-19T15:37:14.036Z,100374
2018-03-19T15:42:18.463Z,100377
2018-03-19T15:47:21.543Z,100377
2018-03-19T15:52:24.636Z,100379
2018-03-19T15:57:28.856Z,100377
2018-03-19T16:02:33.016Z,100383
2018-03-19T16:07:36.886Z,100378
2018-03-19T16:12:40.723Z,100383
2018-03-19T16:17:45.180Z,100397
2018-03-19T16:22:49.616Z,100400
2018-03-19T16:27:53.484Z,100416
2018-03-19T16:32:58.571Z,100416
2018-03-19T16:38:02.459Z,100412
2018-03-19T16:43:07.053Z,100417
2018-03-19T16:48:10.160Z,100428
2018-03-19T16:53:13.226Z,100432
2018-03-19T16:58:16.720Z,100447
2018-03-19T17:03:20.190Z,100457
2018-03-19T17:08:23.276Z,100460
2018-03-19T17:13:26.600Z,100476
2018-03-19T17:18:30.445Z,100487
2018-03-19T17:23:34.679Z,100497
2018-03-19T17:28:39.115Z,100500
2018-03-19T17:33:42.955Z,100508
2018-03-19T17:38:46.036Z,100519
2018-03-19T17:43:50.459Z,100524
2018-03-19T17:48:54.888Z,100532
2018-03-19T17:53:58.372Z,100544
2018-03-19T17:59:02.479Z,100556
2018-03-19T18:04:06.274Z,100562
2018-03-19T18:09:10.965Z,100566
2018-03-19T18:14:15.388Z,100580
2018-03-19T18:19:18.875Z,100589
2018-03-19T18:24:22.339Z,100602
2018-03-19T18:29:26.789Z,100606
2018-03-19T18:34:30.636Z,100622
2018-03-19T18:39:33.757Z,100630
2018-03-19T18:44:38.324Z,100641
2018-03-19T18:49:41.407Z,100644
2018-03-19T18:54:45.830Z,100651
2018-03-19T18:59:49.661Z,100656
2018-03-19T19:04:53.862Z,100658
2018-03-19T19:09:56.968Z,100671
2018-03-19T19:15:00.821Z,100677
2018-03-19T19:20:04.693Z,100680
2018-03-19T19:25:08.159Z,100685
2018-03-19T19:30:12.011Z,100688
2018-03-19T19:35:16.456Z,100694
2018-03-19T19:40:20.688Z,100702
2018-03-19T19:45:24.543Z,100707
2018-03-19T19:50:29.624Z,100714
2018-03-19T19:55:34.209Z,100720
2018-03-19T20:00:38.798Z,100724
2018-03-19T20:05:43.571Z,100732
2018-03-19T20:10:46.960Z,100743
2018-03-19T20:15:50.845Z,100762
2018-03-19T20:20:54.728Z,100761
2018-03-19T20:25:58.214Z,100766
2018-03-19T20:31:01.750Z,100771
2018-03-19T20:36:05.610Z,100778
2018-03-19T20:41:09.861Z,100786
2018-03-19T20:46:14.462Z,100791
2018-03-19T20:51:17.952Z,100800
2018-03-19T20:56:21.049Z,100804
2018-03-19T21:01:24.944Z,100810
2018-03-19T21:06:28.823Z,100813
2018-03-19T21:11:31.941Z,100820
2018-03-19T21:16:36.184Z,100820
2018-03-19T21:21:40.691Z,100832
2018-03-19T21:26:44.557Z,100837
2018-03-19T21:31:48.798Z,100844
2018-03-19T21:36:53.015Z,100844
2018-03-19T21:41:57.474Z,100850
2018-03-19T21:47:01.948Z,100846
2018-03-19T21:52:06.381Z,100860
2018-03-19T21:57:09.867Z,100863
2018-03-19T22:02:14.108Z,100867
2018-03-19T22:07:18.757Z,100866
2018-03-19T22:12:22.646Z,100869
2018-03-19T22:17:27.090Z,100863
2018-03-19T22:22:32.321Z,100863
2018-03-19T22:27:35.437Z,100867
2018-03-19T22:32:38.588Z,100862
2018-03-19T22:37:42.524Z,100859
2018-03-19T22:42:46.466Z,100856
2018-03-19T22:47:49.558Z,100859
2018-03-19T22:52:54.298Z,100855
2018-03-19T22:57:57.481Z,100864
2018-03-19T23:03:01.417Z,100877
2018-03-19T23:08:04.606Z,100877
2018-03-19T23:13:08.474Z,100862
2018-03-19T23:18:13.703Z,100862
2018-03-19T23:23:16.857Z,100868
2018-03-19T23:28:19.984Z,100875
2018-03-19T23:33:23.850Z,100873
2018-03-19T23:38:28.440Z,100881
2018-03-19T23:43:31.938Z,100879
2018-03-19T23:48:36.532Z,100885
2018-03-19T23:53:41.147Z,100882
2018-03-19T23:58:45.674Z,100884
